Time;durP1;ratioP1;P1;durP2;ratioP2;P2;SDS_P1;SDS_P2;PMS_P1;PMS_P2;Temp;Humidity;BMP_temperature;BMP_pressure;BME280_temperature;BME280_humidity;BME280_pressure;Samples;Min_cycle;Max_cycle;Signal;HPM_P1;HPM_P2
2022/04/07 00:02:02;;;;;;;5.50;3.10;;;10.10;99.90;;;;;;5051645;28;20029;-68
2022/04/07 00:04:29;;;;;;;4.70;2.60;;;10.00;99.90;;;;;;5051534;28;20031;-68
2022/04/07 00:06:55;;;;;;;6.00;2.88;;;9.90;99.90;;;;;;5051907;28;20059;-68
2022/04/07 00:09:21;;;;;;;5.95;3.45;;;9.80;99.90;;;;;;5051691;28;20056;-68
2022/04/07 00:11:46;;;;;;;5.50;3.30;;;9.80;99.90;;;;;;5050406;28;20025;-68
2022/04/07 00:14:12;;;;;;;3.28;2.72;;;9.80;99.90;;;;;;5057592;28;20028;-68
2022/04/07 00:16:37;;;;;;;4.40;2.90;;;9.70;99.90;;;;;;5071984;28;20036;-68
2022/04/07 00:19:05;;;;;;;6.45;4.28;;;9.70;99.90;;;;;;5071767;28;20115;-68
2022/04/07 00:21:38;;;;;;;3.58;3.00;;;9.70;99.90;;;;;;5071484;28;20507;-68
2022/04/07 00:24:04;;;;;;;8.13;3.17;;;9.70;99.90;;;;;;5071684;28;20480;-68
2022/04/07 00:26:30;;;;;;;4.22;2.65;;;9.70;99.90;;;;;;5071552;28;20028;-68
2022/04/07 00:28:56;;;;;;;6.00;2.83;;;9.70;99.90;;;;;;5071810;28;20035;-69
2022/04/07 00:31:21;;;;;;;6.22;2.88;;;9.70;99.90;;;;;;5071758;28;20107;-68
2022/04/07 00:33:47;;;;;;;7.10;2.90;;;9.70;99.90;;;;;;5071579;28;20027;-68
2022/04/07 00:36:12;;;;;;;4.78;2.22;;;9.70;99.90;;;;;;5053917;28;20163;-69
2022/04/07 00:38:38;;;;;;;5.85;1.95;;;9.80;99.90;;;;;;5051651;28;20068;-69
2022/04/07 00:41:03;;;;;;;7.38;2.30;;;9.70;99.90;;;;;;5051333;28;20429;-68
2022/04/07 00:43:30;;;;;;;5.40;1.85;;;9.80;99.90;;;;;;5050928;28;20021;-68
2022/04/07 00:45:58;;;;;;;5.40;2.15;;;9.80;99.90;;;;;;5031570;28;20412;-69
2022/04/07 00:48:23;;;;;;;6.30;2.33;;;9.80;99.90;;;;;;5031828;28;20021;-69
2022/04/07 00:50:49;;;;;;;5.30;2.70;;;9.80;99.90;;;;;;5031554;28;20025;-69
2022/04/07 00:53:15;;;;;;;6.65;2.67;;;9.80;99.90;;;;;;5031607;28;20041;-69
2022/04/07 00:55:42;;;;;;;9.90;1.73;;;9.80;99.90;;;;;;5031296;28;20436;-68
2022/04/07 00:58:07;;;;;;;10.98;1.83;;;9.80;99.90;;;;;;5031519;28;20026;-68
2022/04/07 01:00:34;;;;;;;16.73;2.38;;;9.70;99.90;;;;;;5032421;28;20032;-68
2022/04/07 01:03:00;;;;;;;9.60;1.67;;;9.60;99.90;;;;;;5035443;28;20032;-68
2022/04/07 01:05:25;;;;;;;5.10;1.15;;;9.50;99.90;;;;;;5035239;28;20112;-68
2022/04/07 01:07:52;;;;;;;5.60;1.25;;;9.40;99.90;;;;;;5035179;28;20030;-69
2022/04/07 01:10:19;;;;;;;6.55;1.48;;;9.40;99.90;;;;;;5033829;28;20030;-69
2022/04/07 01:12:45;;;;;;;5.45;1.52;;;9.30;99.90;;;;;;5035181;28;20045;-68
2022/04/07 01:15:10;;;;;;;9.15;1.63;;;9.30;99.90;;;;;;5048968;28;20124;-69
2022/04/07 01:17:38;;;;;;;7.38;1.42;;;9.30;99.90;;;;;;5055085;28;20017;-68
2022/04/07 01:20:05;;;;;;;11.00;2.42;;;9.20;99.90;;;;;;5055230;28;20025;-68
2022/04/07 01:22:33;;;;;;;9.65;2.05;;;9.10;99.90;;;;;;5054748;28;20087;-68
2022/04/07 01:24:59;;;;;;;8.90;2.58;;;9.20;99.90;;;;;;5054908;28;20039;-68
2022/04/07 01:27:25;;;;;;;4.88;2.20;;;9.10;99.90;;;;;;5053291;28;20037;-67
2022/04/07 01:29:53;;;;;;;9.90;2.35;;;9.10;99.90;;;;;;5054795;28;20408;-68
2022/04/07 01:32:50;;;;;;;5.45;2.15;;;9.00;99.90;;;;;;5054736;28;20424;-68
2022/04/07 01:35:17;;;;;;;11.45;2.60;;;9.00;99.90;;;;;;5050020;28;20506;-68
2022/04/07 01:37:46;;;;;;;10.20;2.17;;;9.00;99.90;;;;;;5054680;28;20036;-68
2022/04/07 01:40:15;;;;;;;8.02;2.00;;;9.00;99.90;;;;;;5054638;28;20025;-69
2022/04/07 01:42:41;;;;;;;14.55;2.83;;;9.00;99.90;;;;;;5054622;28;20032;-68
2022/04/07 01:45:07;;;;;;;8.05;2.60;;;8.90;99.90;;;;;;5036531;28;20033;-69
2022/04/07 01:47:35;;;;;;;11.77;3.03;;;8.90;99.90;;;;;;5054405;28;20028;-69
2022/04/07 01:50:05;;;;;;;9.15;2.40;;;8.90;99.90;;;;;;5054419;28;20044;-69
2022/04/07 01:52:32;;;;;;;7.68;2.72;;;8.90;99.90;;;;;;5054309;28;20104;-69
2022/04/07 01:54:58;;;;;;;7.03;2.63;;;9.00;99.90;;;;;;5054326;28;20060;-69
2022/04/07 01:57:25;;;;;;;8.70;2.60;;;9.00;99.90;;;;;;5053201;28;20108;-69
2022/04/07 01:59:51;;;;;;;10.38;3.10;;;9.00;99.90;;;;;;5054213;28;20430;-69
2022/04/07 02:02:17;;;;;;;7.25;3.05;;;9.00;99.90;;;;;;5054216;28;20104;-68
2022/04/07 02:04:56;;;;;;;14.73;3.63;;;8.90;99.90;;;;;;5054049;28;20104;-67
2022/04/07 02:07:27;;;;;;;8.90;3.10;;;8.90;99.90;;;;;;5054145;28;20025;-66
2022/04/07 02:09:52;;;;;;;6.63;3.03;;;8.80;99.90;;;;;;5053994;28;20041;-66
2022/04/07 02:12:20;;;;;;;8.20;3.80;;;8.80;99.90;;;;;;5053548;28;20037;-65
2022/04/07 02:14:49;;;;;;;9.60;3.42;;;8.80;99.90;;;;;;5053687;28;20025;-66
2022/04/07 02:17:20;;;;;;;10.30;3.70;;;8.80;99.90;;;;;;5053970;28;20075;-67
2022/04/07 02:19:50;;;;;;;7.70;3.30;;;8.80;99.90;;;;;;5053802;28;20031;-67
2022/04/07 02:22:16;;;;;;;10.00;3.17;;;8.80;99.90;;;;;;5053765;28;20068;-65
2022/04/07 02:24:41;;;;;;;13.70;3.95;;;8.80;99.90;;;;;;5052486;28;20040;-66
2022/04/07 02:27:08;;;;;;;12.23;3.67;;;8.80;99.90;;;;;;5053363;28;20112;-66
2022/04/07 02:29:34;;;;;;;8.63;3.03;;;8.80;99.90;;;;;;5053490;28;20491;-66
2022/04/07 02:31:59;;;;;;;7.97;3.10;;;8.80;99.90;;;;;;5053855;28;20025;-67
2022/04/07 02:34:25;;;;;;;11.73;3.38;;;8.80;99.90;;;;;;5052185;28;20381;-67
2022/04/07 02:36:50;;;;;;;12.05;3.20;;;8.80;99.90;;;;;;5053818;28;20107;-65
2022/04/07 02:39:16;;;;;;;12.55;3.33;;;8.80;99.90;;;;;;5053459;28;20028;-67
2022/04/07 02:41:41;;;;;;;14.02;3.80;;;8.90;99.90;;;;;;5041489;28;20040;-67
2022/04/07 02:44:07;;;;;;;12.43;2.95;;;8.90;99.90;;;;;;5034057;28;20041;-67
2022/04/07 02:46:32;;;;;;;15.70;3.78;;;9.00;99.90;;;;;;5043282;28;20682;-67
2022/04/07 02:48:58;;;;;;;9.80;3.53;;;9.00;99.90;;;;;;5053375;28;20032;-66
2022/04/07 02:51:24;;;;;;;12.40;3.55;;;9.00;99.90;;;;;;5053196;28;20404;-67
2022/04/07 02:53:51;;;;;;;11.23;4.10;;;9.10;99.90;;;;;;5051838;28;20044;-68
2022/04/07 02:56:16;;;;;;;13.02;3.38;;;9.10;99.90;;;;;;5051741;28;20032;-67
2022/04/07 02:58:42;;;;;;;10.52;2.85;;;9.20;99.90;;;;;;5052849;28;20029;-67
2022/04/07 03:01:14;;;;;;;11.52;3.10;;;9.20;99.90;;;;;;5053008;28;20135;-67
2022/04/07 03:03:40;;;;;;;7.70;2.40;;;9.20;99.90;;;;;;5053196;28;20043;-68
2022/04/07 03:06:05;;;;;;;11.20;2.58;;;9.30;99.90;;;;;;5051692;28;20024;-67
2022/04/07 03:08:33;;;;;;;12.65;2.90;;;9.30;99.90;;;;;;5052907;28;20452;-67
2022/04/07 03:11:00;;;;;;;12.98;2.90;;;9.30;99.90;;;;;;5053015;28;20021;-66
2022/04/07 03:13:25;;;;;;;11.93;2.70;;;9.30;99.90;;;;;;5052741;28;20024;-68
2022/04/07 03:15:51;;;;;;;14.68;4.30;;;9.30;99.90;;;;;;5052612;28;20025;-67
2022/04/07 03:18:17;;;;;;;9.38;2.30;;;9.30;99.90;;;;;;5051536;28;20381;-68
2022/04/07 03:20:42;;;;;;;14.18;2.50;;;9.40;99.90;;;;;;5052646;28;20017;-67
2022/04/07 03:23:08;;;;;;;10.88;2.10;;;9.40;99.90;;;;;;5051803;28;20106;-68
2022/04/07 03:25:34;;;;;;;15.15;2.58;;;9.40;99.90;;;;;;5051158;28;20029;-67
2022/04/07 03:27:59;;;;;;;12.55;3.30;;;9.50;99.90;;;;;;5052537;28;20071;-68
2022/04/07 03:30:25;;;;;;;8.50;2.03;;;9.50;99.90;;;;;;5052506;28;20079;-67
2022/04/07 03:32:50;;;;;;;11.55;2.45;;;9.50;99.90;;;;;;5052500;28;20025;-67
2022/04/07 03:35:16;;;;;;;13.73;3.92;;;9.50;99.90;;;;;;5052394;28;20023;-67
2022/04/07 03:37:42;;;;;;;16.40;3.38;;;9.50;99.90;;;;;;5051138;28;20112;-67
2022/04/07 03:40:08;;;;;;;10.07;2.08;;;9.50;99.90;;;;;;5052205;28;20033;-68
2022/04/07 03:42:34;;;;;;;13.68;2.85;;;9.50;99.90;;;;;;5052411;28;20587;-68
2022/04/07 03:44:59;;;;;;;13.73;3.65;;;9.50;99.90;;;;;;5052205;28;20120;-67
2022/04/07 03:47:25;;;;;;;11.30;2.42;;;9.50;99.90;;;;;;5052168;28;20124;-67
2022/04/07 03:49:51;;;;;;;9.80;2.38;;;9.60;99.90;;;;;;5052083;28;20033;-67
2022/04/07 03:52:16;;;;;;;13.20;2.20;;;9.60;99.90;;;;;;5052195;28;20163;-68
2022/04/07 03:54:42;;;;;;;10.07;1.90;;;9.60;99.90;;;;;;5052002;28;20032;-68
2022/04/07 03:57:07;;;;;;;8.70;1.83;;;9.60;99.90;;;;;;5052028;28;20028;-67
2022/04/07 03:59:38;;;;;;;13.35;2.25;;;9.60;99.90;;;;;;5051992;28;20039;-66
2022/04/07 04:02:05;;;;;;;8.88;2.22;;;9.60;99.90;;;;;;5052074;28;20036;-67
2022/04/07 04:04:31;;;;;;;10.82;2.45;;;9.50;99.90;;;;;;5051924;28;20024;-66
2022/04/07 04:06:56;;;;;;;7.97;1.90;;;9.50;99.90;;;;;;5051948;28;20044;-67
2022/04/07 04:09:22;;;;;;;9.57;2.42;;;9.50;99.90;;;;;;5051798;28;20029;-67
2022/04/07 04:11:47;;;;;;;8.77;2.10;;;9.50;99.90;;;;;;5051880;28;20484;-66
2022/04/07 04:14:13;;;;;;;8.43;1.90;;;9.50;99.90;;;;;;5051661;28;20033;-67
2022/04/07 04:16:38;;;;;;;12.27;2.55;;;9.50;99.90;;;;;;5051862;28;20021;-66
2022/04/07 04:19:04;;;;;;;14.52;2.58;;;9.50;99.90;;;;;;5051832;28;20499;-66
2022/04/07 04:21:30;;;;;;;6.80;2.35;;;9.50;99.90;;;;;;5051587;28;20504;-67
2022/04/07 04:23:55;;;;;;;8.25;2.22;;;9.50;99.90;;;;;;5051681;28;20392;-67
2022/04/07 04:26:21;;;;;;;12.40;2.65;;;9.50;99.90;;;;;;5051675;28;20108;-67
2022/04/07 04:28:46;;;;;;;6.50;2.20;;;9.50;99.90;;;;;;5051740;28;20567;-66
2022/04/07 04:31:12;;;;;;;11.02;2.22;;;9.60;99.90;;;;;;5051668;28;20109;-66
2022/04/07 04:33:37;;;;;;;10.13;1.95;;;9.60;99.90;;;;;;5050400;28;20472;-67
2022/04/07 04:36:03;;;;;;;12.20;2.05;;;9.60;99.90;;;;;;5053916;28;20032;-67
2022/04/07 04:38:29;;;;;;;8.07;1.80;;;9.70;99.90;;;;;;5055558;28;20040;-67
2022/04/07 04:40:54;;;;;;;7.65;1.90;;;9.70;99.90;;;;;;5055697;28;20029;-67
2022/04/07 04:43:20;;;;;;;9.52;2.03;;;9.70;99.90;;;;;;5055665;28;20080;-66
2022/04/07 04:45:46;;;;;;;8.48;1.98;;;9.80;99.90;;;;;;5055396;28;20489;-67
2022/04/07 04:48:12;;;;;;;7.65;1.63;;;9.90;99.90;;;;;;5055528;28;20036;-67
2022/04/07 04:50:37;;;;;;;5.25;2.15;;;9.90;99.90;;;;;;5055453;28;20044;-67
2022/04/07 04:53:03;;;;;;;14.25;2.33;;;9.90;99.90;;;;;;5055384;28;20031;-67
2022/04/07 04:55:28;;;;;;;9.82;1.17;;;10.00;99.90;;;;;;5055439;28;20044;-67
2022/04/07 04:57:54;;;;;;;9.13;1.73;;;10.10;99.90;;;;;;5055466;28;20064;-67
2022/04/07 05:00:19;;;;;;;8.07;2.10;;;10.10;99.90;;;;;;5055226;28;20388;-66
2022/04/07 05:02:45;;;;;;;5.82;1.10;;;10.10;99.90;;;;;;5054079;28;20108;-67
2022/04/07 05:05:12;;;;;;;8.15;1.50;;;10.00;99.90;;;;;;5053887;28;20025;-67
2022/04/07 05:07:38;;;;;;;6.22;1.58;;;10.00;99.90;;;;;;5055068;28;20587;-69
2022/04/07 05:10:04;;;;;;;6.15;1.38;;;10.00;99.90;;;;;;5055480;28;20108;-66
2022/04/07 05:12:30;;;;;;;5.20;1.10;;;10.00;99.90;;;;;;5055127;28;20369;-67
2022/04/07 05:14:55;;;;;;;5.82;1.05;;;10.00;99.90;;;;;;5055129;28;20416;-67
2022/04/07 05:17:21;;;;;;;4.63;0.90;;;10.00;99.90;;;;;;5054908;28;20495;-67
2022/04/07 05:19:47;;;;;;;3.95;1.17;;;10.00;99.90;;;;;;5055116;28;20791;-67
2022/04/07 05:22:13;;;;;;;5.80;1.00;;;9.90;99.90;;;;;;5054817;28;20120;-67
2022/04/07 05:24:38;;;;;;;3.83;1.02;;;9.80;99.90;;;;;;5054339;28;20041;-67
2022/04/07 05:27:04;;;;;;;2.97;1.20;;;9.70;99.90;;;;;;5037108;28;20030;-66
2022/04/07 05:29:29;;;;;;;4.75;1.27;;;9.60;99.90;;;;;;5043549;28;20479;-67
2022/04/07 05:31:55;;;;;;;4.75;1.17;;;9.60;99.90;;;;;;5033191;28;20053;-66
2022/04/07 05:34:20;;;;;;;3.55;1.33;;;9.50;99.90;;;;;;5042893;28;20124;-66
2022/04/07 05:36:46;;;;;;;3.03;1.10;;;9.40;99.90;;;;;;5036980;28;20033;-67
2022/04/07 05:39:13;;;;;;;6.88;2.15;;;9.40;99.90;;;;;;5041559;28;20052;-66
2022/04/07 05:41:38;;;;;;;4.13;1.52;;;9.40;99.90;;;;;;5040933;28;20064;-67
2022/04/07 05:44:04;;;;;;;3.50;0.98;;;9.30;99.90;;;;;;5043273;28;20069;-66
2022/04/07 05:46:30;;;;;;;4.85;1.05;;;9.40;99.90;;;;;;5043874;28;20029;-66
2022/04/07 05:48:56;;;;;;;6.53;1.50;;;9.30;99.90;;;;;;5038441;28;20476;-66
2022/04/07 05:51:21;;;;;;;4.65;1.00;;;9.30;99.90;;;;;;5035639;28;20565;-67
2022/04/07 05:53:47;;;;;;;6.03;1.40;;;9.30;99.90;;;;;;5041062;28;20100;-73
2022/04/07 05:56:12;;;;;;;4.65;2.33;;;9.30;99.90;;;;;;5039066;28;20029;-66
2022/04/07 05:58:38;;;;;;;4.30;1.30;;;9.20;99.90;;;;;;5037791;28;20488;-67
2022/04/07 06:01:03;;;;;;;3.83;1.23;;;9.20;99.90;;;;;;5046512;28;20480;-67
2022/04/07 06:03:31;;;;;;;3.63;1.40;;;9.10;99.90;;;;;;5040648;28;20159;-66
2022/04/07 06:05:57;;;;;;;2.63;1.17;;;9.00;99.90;;;;;;5032123;28;20151;-67
2022/04/07 06:08:22;;;;;;;4.03;1.98;;;8.90;99.90;;;;;;5037037;28;20025;-66
2022/04/07 06:10:48;;;;;;;3.25;1.30;;;8.90;99.90;;;;;;5038230;28;20381;-67
2022/04/07 06:13:17;;;;;;;4.72;1.60;;;8.90;99.90;;;;;;5037800;28;20021;-69
2022/04/07 06:15:42;;;;;;;5.35;1.80;;;8.80;99.90;;;;;;5038868;28;20023;-69
2022/04/07 06:18:08;;;;;;;3.00;1.88;;;8.80;99.90;;;;;;5049120;28;20392;-69
2022/04/07 06:20:34;;;;;;;4.97;2.38;;;8.80;99.90;;;;;;5047670;28;20449;-69
2022/04/07 06:23:02;;;;;;;6.90;2.78;;;8.80;99.90;;;;;;5051880;28;20044;-68
2022/04/07 06:25:28;;;;;;;6.07;2.80;;;8.80;99.90;;;;;;5050577;28;20032;-69
2022/04/07 06:27:53;;;;;;;7.22;3.33;;;8.70;99.90;;;;;;5046156;28;20029;-69
2022/04/07 06:30:20;;;;;;;4.97;3.03;;;8.70;99.90;;;;;;5049034;28;20500;-69
2022/04/07 06:32:47;;;;;;;7.13;3.22;;;8.70;99.90;;;;;;5045915;28;20048;-69
2022/04/07 06:35:14;;;;;;;9.95;3.95;;;8.70;99.90;;;;;;5043002;28;20036;-69
2022/04/07 06:37:44;;;;;;;8.80;3.60;;;8.70;99.90;;;;;;5048921;28;20018;-69
2022/04/07 06:40:11;;;;;;;10.38;3.55;;;8.70;99.90;;;;;;5051514;28;20100;-69
2022/04/07 06:42:36;;;;;;;7.00;3.63;;;8.70;99.90;;;;;;5049976;28;20426;-69
2022/04/07 06:45:02;;;;;;;7.97;3.63;;;8.70;99.90;;;;;;5035648;28;20113;-69
2022/04/07 06:47:28;;;;;;;9.93;3.92;;;8.70;99.90;;;;;;5046554;28;20045;-69
2022/04/07 06:49:53;;;;;;;16.52;5.07;;;8.70;99.90;;;;;;5044466;28;20329;-69
2022/04/07 06:52:19;;;;;;;11.13;4.57;;;8.70;99.90;;;;;;5048939;28;20424;-69
2022/04/07 06:54:45;;;;;;;12.73;4.40;;;8.70;99.90;;;;;;5045639;28;20097;-69
2022/04/07 06:57:11;;;;;;;12.82;4.05;;;8.70;99.90;;;;;;5050231;28;20110;-69
2022/04/07 06:59:37;;;;;;;11.05;4.43;;;8.70;99.90;;;;;;5058883;28;20488;-70
2022/04/07 07:02:03;;;;;;;9.18;3.72;;;8.70;99.90;;;;;;5050016;28;20025;-69
2022/04/07 07:04:32;;;;;;;12.45;3.85;;;8.70;99.90;;;;;;5051012;28;20044;-69
2022/04/07 07:06:57;;;;;;;12.77;4.00;;;8.70;99.90;;;;;;5048494;28;20029;-69
2022/04/07 07:09:23;;;;;;;9.48;3.20;;;8.70;99.90;;;;;;5044128;28;20029;-69
2022/04/07 07:11:48;;;;;;;7.78;3.40;;;8.70;99.90;;;;;;5037798;28;20108;-69
2022/04/07 07:14:14;;;;;;;8.73;3.50;;;8.80;99.90;;;;;;5046856;28;20052;-69
2022/04/07 07:16:39;;;;;;;5.15;1.70;;;8.70;99.90;;;;;;5046485;28;20029;-68
2022/04/07 07:19:05;;;;;;;2.40;0.50;;;8.70;99.90;;;;;;5047268;28;20025;-69
2022/04/07 07:21:30;;;;;;;4.57;0.60;;;8.50;99.90;;;;;;5058341;28;20565;-69
2022/04/07 07:23:56;;;;;;;3.45;0.40;;;8.10;99.90;;;;;;5047695;28;20028;-69
2022/04/07 07:26:21;;;;;;;3.58;0.40;;;7.80;99.90;;;;;;5051842;28;20036;-69
2022/04/07 07:28:47;;;;;;;3.22;0.40;;;7.50;99.90;;;;;;5065588;28;20035;-68
2022/04/07 07:31:12;;;;;;;3.45;0.50;;;7.40;99.90;;;;;;5069173;28;20103;-69
2022/04/07 07:33:38;;;;;;;3.40;0.60;;;7.40;99.90;;;;;;5055883;28;20021;-69
2022/04/07 07:36:04;;;;;;;4.15;0.50;;;7.40;99.90;;;;;;5049686;28;20400;-68
2022/04/07 07:38:29;;;;;;;3.05;0.85;;;7.30;99.90;;;;;;5042010;28;20178;-69
2022/04/07 07:40:55;;;;;;;6.25;1.00;;;7.20;99.90;;;;;;5051926;28;20100;-68
2022/04/07 07:43:21;;;;;;;6.28;0.93;;;7.20;99.90;;;;;;5054804;28;20499;-68
2022/04/07 07:45:46;;;;;;;6.90;0.90;;;7.20;99.90;;;;;;5056836;28;20021;-68
2022/04/07 07:48:12;;;;;;;7.35;1.05;;;7.10;99.90;;;;;;5051418;28;20480;-68
2022/04/07 07:50:41;;;;;;;4.57;0.98;;;7.10;99.90;;;;;;5039351;28;20067;-69
2022/04/07 07:53:07;;;;;;;5.07;1.20;;;7.20;99.90;;;;;;5049560;28;20021;-69
2022/04/07 07:55:35;;;;;;;3.50;1.00;;;7.20;99.90;;;;;;5056712;28;20031;-68
2022/04/07 07:58:01;;;;;;;6.75;1.20;;;7.20;99.90;;;;;;5060403;28;20405;-68
2022/04/07 08:00:26;;;;;;;7.82;2.00;;;7.10;99.90;;;;;;5066044;28;20113;-68
2022/04/07 08:02:52;;;;;;;4.05;1.00;;;7.10;99.90;;;;;;5054517;28;20366;-69
2022/04/07 08:05:18;;;;;;;4.55;0.90;;;7.00;99.90;;;;;;5070837;28;20062;-69
2022/04/07 08:07:43;;;;;;;4.78;1.00;;;7.00;99.90;;;;;;5048703;28;20117;-69
2022/04/07 08:10:10;;;;;;;7.82;1.73;;;7.00;99.90;;;;;;5051460;28;20032;-68
2022/04/07 08:12:36;;;;;;;7.60;1.92;;;7.00;99.90;;;;;;5048831;28;20028;-69
2022/04/07 08:15:02;;;;;;;7.40;1.35;;;7.00;99.90;;;;;;5049635;28;20021;-69
2022/04/07 08:17:27;;;;;;;6.22;1.20;;;7.00;99.90;;;;;;5051170;28;20504;-68
2022/04/07 08:19:53;;;;;;;5.10;1.02;;;7.00;99.90;;;;;;5050159;28;20029;-67
2022/04/07 08:22:18;;;;;;;3.88;1.20;;;7.00;99.90;;;;;;5043282;28;20166;-67
2022/04/07 08:24:44;;;;;;;3.03;1.05;;;7.00;99.90;;;;;;5053157;28;20523;-67
2022/04/07 08:27:12;;;;;;;4.22;0.98;;;7.00;99.90;;;;;;5038122;28;20021;-68
2022/04/07 08:29:38;;;;;;;3.53;1.08;;;7.00;99.90;;;;;;5062099;28;20112;-68
2022/04/07 08:32:03;;;;;;;3.28;0.85;;;7.10;99.90;;;;;;5063420;28;20129;-68
2022/04/07 08:34:29;;;;;;;5.75;1.77;;;7.20;99.90;;;;;;5051447;28;20572;-67
2022/04/07 08:36:54;;;;;;;2.35;0.93;;;7.40;99.90;;;;;;5052774;28;20527;-67
2022/04/07 08:39:20;;;;;;;6.28;1.55;;;7.50;99.90;;;;;;5048134;28;20029;-67
2022/04/07 08:41:48;;;;;;;3.17;1.00;;;7.50;99.90;;;;;;5047660;28;20039;-67
2022/04/07 08:44:16;;;;;;;4.45;1.08;;;7.50;99.90;;;;;;5052016;28;20041;-67
2022/04/07 08:46:45;;;;;;;4.68;1.40;;;7.50;99.90;;;;;;5048667;28;20473;-67
2022/04/07 08:49:13;;;;;;;3.90;1.15;;;7.50;99.90;;;;;;5044568;28;20029;-67
2022/04/07 08:51:39;;;;;;;5.55;1.33;;;7.50;99.90;;;;;;5046708;28;20033;-67
2022/04/07 08:54:04;;;;;;;2.88;1.00;;;7.60;99.90;;;;;;5043479;28;20025;-67
2022/04/07 08:56:30;;;;;;;3.45;1.10;;;7.70;99.90;;;;;;5050077;28;21438;-67
2022/04/07 08:58:55;;;;;;;4.65;1.10;;;7.80;99.90;;;;;;5051635;28;20020;-67
2022/04/07 09:01:21;;;;;;;7.30;1.15;;;7.80;99.90;;;;;;5049390;28;20071;-67
2022/04/07 09:03:46;;;;;;;5.85;1.10;;;7.80;99.90;;;;;;5047451;28;20082;-67
2022/04/07 09:06:18;;;;;;;3.65;1.33;;;8.00;99.90;;;;;;5048401;28;20028;-67
2022/04/07 09:08:44;;;;;;;6.03;1.17;;;8.30;99.90;;;;;;5047567;28;20469;-67
2022/04/07 09:11:11;;;;;;;5.95;1.73;;;8.50;99.90;;;;;;5049281;28;20050;-67
2022/04/07 09:13:39;;;;;;;5.68;1.20;;;8.60;99.90;;;;;;5047381;28;20028;-67
2022/04/07 09:16:15;;;;;;;4.80;1.10;;;8.70;99.90;;;;;;5047289;28;20029;-67
2022/04/07 09:18:43;;;;;;;6.85;0.90;;;8.80;99.90;;;;;;5051168;28;20068;-67
2022/04/07 09:21:17;;;;;;;5.63;1.10;;;8.90;99.90;;;;;;5051799;28;20460;-67
2022/04/07 09:23:43;;;;;;;4.43;1.17;;;9.00;99.90;;;;;;5049020;28;20066;-68
2022/04/07 09:26:13;;;;;;;4.65;0.98;;;9.20;99.90;;;;;;5054578;28;20041;-67
2022/04/07 09:28:39;;;;;;;;;;;9.40;99.90;;;;;;5063866;28;20021;-67
2022/04/07 09:31:04;;;;;;;6.55;0.95;;;9.40;99.90;;;;;;5055860;28;19908;-67
2022/04/07 09:33:30;;;;;;;3.33;0.82;;;9.50;99.90;;;;;;5050921;28;20131;-67
2022/04/07 09:36:06;;;;;;;5.95;1.23;;;9.60;99.90;;;;;;5065197;28;20074;-67
2022/04/07 09:38:33;;;;;;;4.65;0.95;;;9.70;99.90;;;;;;5056030;28;20098;-67
2022/04/07 09:41:19;;;;;;;4.03;1.15;;;9.80;99.90;;;;;;5070295;28;20464;-67
2022/04/07 09:43:58;;;;;;;4.53;1.45;;;9.90;99.90;;;;;;5061754;28;20488;-67
2022/04/07 09:46:24;;;;;;;3.90;0.88;;;9.90;99.90;;;;;;5058992;28;20028;-67
2022/04/07 09:49:09;;;;;;;5.97;1.02;;;10.00;99.90;;;;;;5068908;28;20029;-68
2022/04/07 09:51:51;;;;;;;3.75;1.02;;;10.20;99.90;;;;;;5061288;28;20017;-68
2022/04/07 09:54:17;;;;;;;3.40;0.85;;;10.40;99.90;;;;;;5059285;28;20507;-67
2022/04/07 09:56:45;;;;;;;4.78;0.90;;;10.40;99.90;;;;;;5055968;28;20435;-67
2022/04/07 09:59:12;;;;;;;5.00;0.73;;;10.40;99.90;;;;;;5057967;28;20024;-67
2022/04/07 10:01:38;;;;;;;6.95;1.00;;;10.50;99.90;;;;;;5064071;28;20029;-67
2022/04/07 10:04:08;;;;;;;6.25;0.70;;;10.50;99.90;;;;;;5066054;28;20157;-67
2022/04/07 10:06:34;;;;;;;5.00;0.50;;;10.50;99.90;;;;;;5056477;28;20108;-67
2022/04/07 10:09:03;;;;;;;5.63;0.60;;;10.40;99.90;;;;;;5046728;28;20049;-67
2022/04/07 10:11:31;;;;;;;4.53;0.75;;;10.40;99.90;;;;;;5041627;28;20108;-67
2022/04/07 10:13:57;;;;;;;4.90;0.70;;;10.50;99.90;;;;;;5047479;28;20548;-67
2022/04/07 10:16:24;;;;;;;5.28;0.70;;;10.50;99.10;;;;;;5060781;28;20489;-67
2022/04/07 10:19:01;;;;;;;3.97;0.75;;;10.50;98.70;;;;;;5069392;28;20074;-67
2022/04/07 10:22:01;;;;;;;7.35;0.80;;;10.70;98.90;;;;;;5052586;28;20059;-67
2022/04/07 10:24:37;;;;;;;8.48;0.95;;;10.80;98.40;;;;;;5043176;28;20037;-67
2022/04/07 10:27:09;;;;;;;5.95;0.73;;;10.80;97.90;;;;;;5052097;28;20051;-67
2022/04/07 10:29:37;;;;;;;9.43;1.38;;;10.90;98.10;;;;;;5045738;28;20091;-67
2022/04/07 10:32:09;;;;;;;4.72;0.75;;;11.20;97.60;;;;;;5049452;28;20025;-67
2022/04/07 10:34:35;;;;;;;5.03;0.57;;;11.30;96.30;;;;;;5049964;28;20021;-67
2022/04/07 10:37:07;;;;;;;6.50;0.75;;;11.30;96.20;;;;;;5056296;28;20051;-67
2022/04/07 10:39:32;;;;;;;8.27;1.77;;;11.30;95.60;;;;;;5064740;28;20032;-67
2022/04/07 10:41:58;;;;;;;7.65;1.10;;;11.40;95.70;;;;;;5064412;28;20037;-67
2022/04/07 10:44:25;;;;;;;6.32;0.90;;;11.40;94.30;;;;;;5054569;28;20033;-67
2022/04/07 10:47:04;;;;;;;8.10;1.40;;;11.40;92.30;;;;;;5069292;28;20082;-67
2022/04/07 10:49:32;;;;;;;8.52;1.25;;;11.40;92.50;;;;;;5049049;28;20048;-67
2022/04/07 10:51:59;;;;;;;7.95;0.90;;;11.50;92.70;;;;;;5051721;28;20025;-67
2022/04/07 10:54:29;;;;;;;10.15;1.88;;;11.50;92.70;;;;;;5046290;28;20595;-67
2022/04/07 10:56:57;;;;;;;7.78;1.10;;;11.60;92.70;;;;;;5047214;28;20032;-67
2022/04/07 10:59:31;;;;;;;7.85;1.63;;;11.80;92.00;;;;;;5049628;28;20492;-67
2022/04/07 11:02:00;;;;;;;9.00;1.00;;;12.80;90.80;;;;;;5047507;28;20025;-67
2022/04/07 11:04:25;;;;;;;4.57;1.00;;;14.70;89.80;;;;;;5046654;28;20388;-67
2022/04/07 11:07:10;;;;;;;10.43;1.45;;;15.20;79.60;;;;;;5045142;28;20028;-67
2022/04/07 11:09:54;;;;;;;11.45;1.70;;;14.60;76.20;;;;;;5038764;28;20017;-67
2022/04/07 11:12:31;;;;;;;6.45;1.23;;;14.10;79.20;;;;;;5050512;28;20033;-67
2022/04/07 11:15:03;;;;;;;5.82;1.13;;;13.50;81.00;;;;;;5047685;28;20077;-67
2022/04/07 11:17:46;;;;;;;8.73;1.50;;;13.00;80.60;;;;;;5044169;28;20112;-67
2022/04/07 11:20:15;;;;;;;6.40;1.27;;;12.60;80.30;;;;;;5051514;28;20023;-67
2022/04/07 11:22:45;;;;;;;8.60;1.75;;;12.10;81.20;;;;;;5049626;28;20049;-67
2022/04/07 11:25:12;;;;;;;6.80;1.48;;;11.90;83.10;;;;;;5066779;28;20025;-66
2022/04/07 11:27:45;;;;;;;9.73;1.48;;;11.60;84.70;;;;;;5057903;28;20028;-66
2022/04/07 11:30:14;;;;;;;9.00;1.55;;;11.50;84.50;;;;;;5050234;28;20067;-66
2022/04/07 11:33:17;;;;;;;7.90;1.27;;;11.40;84.20;;;;;;5067727;28;20383;-67
2022/04/07 11:35:43;;;;;;;8.98;1.63;;;11.30;83.60;;;;;;5061244;28;20021;-66
2022/04/07 11:38:09;;;;;;;6.85;1.45;;;11.20;86.60;;;;;;5058748;28;20081;-66
2022/04/07 11:40:35;;;;;;;12.35;1.65;;;11.20;85.80;;;;;;5067594;28;20031;-66
2022/04/07 11:43:02;;;;;;;12.35;2.00;;;11.20;86.20;;;;;;5055168;28;20392;-66
2022/04/07 11:45:33;;;;;;;12.38;1.77;;;11.20;85.90;;;;;;5063475;28;20033;-66
2022/04/07 11:47:59;;;;;;;13.35;2.22;;;11.20;87.70;;;;;;5063377;28;20433;-66
2022/04/07 11:50:24;;;;;;;8.57;1.55;;;11.10;86.80;;;;;;5056173;28;20025;-67
2022/04/07 11:52:50;;;;;;;8.38;2.17;;;11.10;85.80;;;;;;5067872;28;20020;-66
2022/04/07 11:55:29;;;;;;;9.43;1.75;;;11.20;84.40;;;;;;5051517;28;20025;-67
2022/04/07 11:58:00;;;;;;;8.70;1.50;;;11.20;83.80;;;;;;5050090;28;20021;-66
2022/04/07 12:00:30;;;;;;;7.85;1.20;;;11.10;83.20;;;;;;5051795;28;20104;-66
2022/04/07 12:03:03;;;;;;;10.60;1.65;;;11.00;84.10;;;;;;5052165;28;20021;-66
2022/04/07 12:05:30;;;;;;;9.43;1.67;;;10.90;83.30;;;;;;5051186;28;20187;-66
2022/04/07 12:07:56;;;;;;;12.18;1.52;;;10.80;85.00;;;;;;5052163;28;20122;-66
2022/04/07 12:10:22;;;;;;;7.10;1.13;;;10.80;83.80;;;;;;5051537;28;20021;-67
2022/04/07 12:12:48;;;;;;;6.65;1.95;;;10.70;84.00;;;;;;5051749;28;20025;-66
2022/04/07 12:15:16;;;;;;;6.75;1.45;;;10.70;84.50;;;;;;5046669;28;20070;-66
2022/04/07 12:18:06;;;;;;;8.15;1.40;;;10.70;84.10;;;;;;5052050;28;20366;-66
2022/04/07 12:20:33;;;;;;;8.10;1.15;;;10.70;84.50;;;;;;5064751;28;20030;-66
2022/04/07 12:23:08;;;;;;;7.10;1.38;;;10.70;84.80;;;;;;5070614;28;20127;-65
2022/04/07 12:25:35;;;;;;;6.38;1.38;;;10.70;85.10;;;;;;5049906;28;20516;-65
2022/04/07 12:28:12;;;;;;;9.65;1.45;;;10.70;85.00;;;;;;5050384;28;20079;-65
2022/04/07 12:30:50;;;;;;;6.80;1.33;;;10.70;84.20;;;;;;5048913;28;20491;-65
2022/04/07 12:33:38;;;;;;;9.75;1.50;;;10.70;84.30;;;;;;5044372;28;20021;-65
2022/04/07 12:36:14;;;;;;;9.32;2.00;;;10.70;84.90;;;;;;5069971;28;20469;-65
2022/04/07 12:38:40;;;;;;;8.20;2.08;;;10.80;85.60;;;;;;5051155;28;20468;-66
2022/04/07 12:41:15;;;;;;;7.78;1.42;;;10.80;85.40;;;;;;5067204;28;20543;-66
2022/04/07 12:43:50;;;;;;;8.85;1.98;;;10.70;83.40;;;;;;5057215;28;20397;-66
2022/04/07 12:46:20;;;;;;;11.18;1.45;;;10.70;84.10;;;;;;5056238;28;20029;-66
2022/04/07 12:49:05;;;;;;;;;;;10.60;84.00;;;;;;5049017;28;20025;-67
2022/04/07 12:51:32;;;;;;;6.70;1.52;;;10.50;84.00;;;;;;5048716;28;19912;-66
2022/04/07 12:54:09;;;;;;;12.07;2.08;;;10.60;83.90;;;;;;5051710;28;20044;-66
2022/04/07 12:56:36;;;;;;;7.78;1.58;;;11.20;83.10;;;;;;5053741;28;20560;-67